sensor_id;sensor_type;location;lat;lon;timestamp;pressure;altitude;pressure_sealevel;temperature;humidity
60725;BME280;59881;36.722;-4.462;2023-02-28T00:00:50;99946.88;;;4.23;44.90
60725;BME280;59881;36.722;-4.462;2023-02-28T00:03:15;100222.50;;;5.92;44.84
60725;BME280;59881;36.722;-4.462;2023-02-28T00:05:41;100364.84;;;6.04;44.61
60725;BME280;59881;36.722;-4.462;2023-02-28T00:08:07;100458.63;;;6.60;44.33
60725;BME280;59881;36.722;-4.462;2023-02-28T00:10:33;100664.19;;;7.18;44.47
60725;BME280;59881;36.722;-4.462;2023-02-28T00:13:05;100980.03;;;10.18;44.34
60725;BME280;59881;36.722;-4.462;2023-02-28T00:15:31;100429.28;;;6.38;43.75
60725;BME280;59881;36.722;-4.462;2023-02-28T00:17:57;99669.16;;;1.98;44.12
60725;BME280;59881;36.722;-4.462;2023-02-28T00:20:23;100976.78;;;9.84;43.96
60725;BME280;59881;36.722;-4.462;2023-02-28T00:22:51;100983.16;;;9.80;43.85
60725;BME280;59881;36.722;-4.462;2023-02-28T00:25:19;100980.81;;;9.75;43.34
60725;BME280;59881;36.722;-4.462;2023-02-28T00:27:46;101246.09;;;9.67;43.25
60725;BME280;59881;36.722;-4.462;2023-02-28T00:30:14;100807.81;;;6.93;42.91
60725;BME280;59881;36.722;-4.462;2023-02-28T00:32:40;100982.31;;;9.49;42.50
60725;BME280;59881;36.722;-4.462;2023-02-28T00:35:07;100523.06;;;6.63;42.24
60725;BME280;59881;36.722;-4.462;2023-02-28T00:37:33;101043.56;;;9.35;41.96
60725;BME280;59881;36.722;-4.462;2023-02-28T00:39:59;100694.03;;;6.63;41.57
60725;BME280;59881;36.722;-4.462;2023-02-28T00:42:24;100736.41;;;7.73;41.03
60725;BME280;59881;36.722;-4.462;2023-02-28T00:44:50;100739.31;;;7.35;40.74
60725;BME280;59881;36.722;-4.462;2023-02-28T00:47:16;100991.09;;;9.18;40.72
60725;BME280;59881;36.722;-4.462;2023-02-28T00:49:41;100992.03;;;9.17;40.94
60725;BME280;59881;36.722;-4.462;2023-02-28T00:52:07;100850.34;;;7.33;40.80
60725;BME280;59881;36.722;-4.462;2023-02-28T00:54:33;100390.25;;;5.49;40.50
60725;BME280;59881;36.722;-4.462;2023-02-28T00:56:58;100522.25;;;5.39;40.40
60725;BME280;59881;36.722;-4.462;2023-02-28T00:59:24;100528.69;;;3.94;40.11
60725;BME280;59881;36.722;-4.462;2023-02-28T01:01:49;100937.94;;;7.98;40.14
60725;BME280;59881;36.722;-4.462;2023-02-28T01:04:15;100820.94;;;7.94;40.03
60725;BME280;59881;36.722;-4.462;2023-02-28T01:06:41;100826.38;;;7.58;39.98
60725;BME280;59881;36.722;-4.462;2023-02-28T01:09:07;100769.09;;;7.50;39.89
60725;BME280;59881;36.722;-4.462;2023-02-28T01:11:33;100991.66;;;8.75;40.43
60725;BME280;59881;36.722;-4.462;2023-02-28T01:13:59;100985.19;;;8.65;40.59
60725;BME280;59881;36.722;-4.462;2023-02-28T01:16:25;101000.44;;;8.58;40.65
60725;BME280;59881;36.722;-4.462;2023-02-28T01:18:51;100670.53;;;5.72;40.67
60725;BME280;59881;36.722;-4.462;2023-02-28T01:21:19;101178.41;;;8.53;40.54
60725;BME280;59881;36.722;-4.462;2023-02-28T01:23:44;101151.38;;;8.51;40.79
60725;BME280;59881;36.722;-4.462;2023-02-28T01:26:12;101004.50;;;8.48;40.96
60725;BME280;59881;36.722;-4.462;2023-02-28T01:28:38;101014.25;;;8.46;40.90
60725;BME280;59881;36.722;-4.462;2023-02-28T01:31:04;101158.66;;;8.46;41.10
60725;BME280;59881;36.722;-4.462;2023-02-28T01:33:29;100657.41;;;5.54;41.40
60725;BME280;59881;36.722;-4.462;2023-02-28T01:36:03;101017.38;;;8.35;41.54
60725;BME280;59881;36.722;-4.462;2023-02-28T01:38:30;101021.16;;;8.29;41.49
60725;BME280;59881;36.722;-4.462;2023-02-28T01:40:55;101063.09;;;8.31;41.42
60725;BME280;59881;36.722;-4.462;2023-02-28T01:46:09;99600.47;;;-0.33;41.36
60725;BME280;59881;36.722;-4.462;2023-02-28T01:48:38;100646.38;;;5.48;41.30
60725;BME280;59881;36.722;-4.462;2023-02-28T01:51:11;100807.56;;;6.97;41.39
60725;BME280;59881;36.722;-4.462;2023-02-28T01:53:42;100885.63;;;6.15;41.61
60725;BME280;59881;36.722;-4.462;2023-02-28T01:56:10;100688.41;;;5.04;41.49
60725;BME280;59881;36.722;-4.462;2023-02-28T01:58:37;101025.97;;;8.21;41.40
60725;BME280;59881;36.722;-4.462;2023-02-28T02:01:03;101202.97;;;8.16;41.27
60725;BME280;59881;36.722;-4.462;2023-02-28T02:03:30;99780.31;;;0.48;41.54
60725;BME280;59881;36.722;-4.462;2023-02-28T02:05:56;100974.25;;;6.62;41.32
60725;BME280;59881;36.722;-4.462;2023-02-28T02:08:28;100623.50;;;5.53;41.44
60725;BME280;59881;36.722;-4.462;2023-02-28T02:10:54;101037.69;;;7.97;41.58
60725;BME280;59881;36.722;-4.462;2023-02-28T02:16:21;101040.94;;;7.84;41.58
60725;BME280;59881;36.722;-4.462;2023-02-28T02:18:59;101039.47;;;7.79;41.25
60725;BME280;59881;36.722;-4.462;2023-02-28T02:27:16;101041.22;;;7.61;41.57
60725;BME280;59881;36.722;-4.462;2023-02-28T02:30:14;101030.16;;;7.54;41.68
60725;BME280;59881;36.722;-4.462;2023-02-28T02:33:02;100514.28;;;4.27;41.25
60725;BME280;59881;36.722;-4.462;2023-02-28T02:40:58;101040.59;;;7.56;40.36
60725;BME280;59881;36.722;-4.462;2023-02-28T02:43:32;100328.56;;;3.21;39.60
60725;BME280;59881;36.722;-4.462;2023-02-28T02:46:46;101103.59;;;7.16;39.99
60725;BME280;59881;36.722;-4.462;2023-02-28T02:48:54;101198.41;;;7.45;39.48
60725;BME280;59881;36.722;-4.462;2023-02-28T02:51:22;101037.88;;;7.40;39.43
60725;BME280;59881;36.722;-4.462;2023-02-28T02:54:08;101039.41;;;7.44;38.77
60725;BME280;59881;36.722;-4.462;2023-02-28T02:56:38;100719.34;;;5.52;38.51
60725;BME280;59881;36.722;-4.462;2023-02-28T02:59:07;101035.03;;;7.44;37.90
60725;BME280;59881;36.722;-4.462;2023-02-28T03:01:35;100955.88;;;6.04;37.73
60725;BME280;59881;36.722;-4.462;2023-02-28T03:04:05;100941.81;;;6.06;37.63
60725;BME280;59881;36.722;-4.462;2023-02-28T03:06:31;101131.22;;;7.42;37.28
60725;BME280;59881;36.722;-4.462;2023-02-28T03:08:57;101096.88;;;7.30;36.49
60725;BME280;59881;36.722;-4.462;2023-02-28T03:11:23;100742.91;;;5.11;37.41
60725;BME280;59881;36.722;-4.462;2023-02-28T03:14:15;100014.06;;;1.05;37.01
60725;BME280;59881;36.722;-4.462;2023-02-28T03:17:02;101030.78;;;7.42;36.39
60725;BME280;59881;36.722;-4.462;2023-02-28T03:19:45;101031.63;;;7.42;36.35
60725;BME280;59881;36.722;-4.462;2023-02-28T03:28:00;101041.50;;;7.37;36.12
60725;BME280;59881;36.722;-4.462;2023-02-28T03:30:28;101024.25;;;7.32;36.14
60725;BME280;59881;36.722;-4.462;2023-02-28T03:32:58;100562.75;;;4.51;35.93
60725;BME280;59881;36.722;-4.462;2023-02-28T03:35:31;100001.41;;;0.25;36.35
60725;BME280;59881;36.722;-4.462;2023-02-28T03:38:10;100268.09;;;2.51;36.37
60725;BME280;59881;36.722;-4.462;2023-02-28T03:40:43;101208.16;;;7.22;35.81
60725;BME280;59881;36.722;-4.462;2023-02-28T03:43:17;100780.06;;;5.78;35.76
60725;BME280;59881;36.722;-4.462;2023-02-28T03:45:43;101021.47;;;7.17;35.73
60725;BME280;59881;36.722;-4.462;2023-02-28T03:48:20;100801.53;;;5.45;35.72
60725;BME280;59881;36.722;-4.462;2023-02-28T03:50:50;100217.28;;;2.22;36.17
60725;BME280;59881;36.722;-4.462;2023-02-28T03:56:24;101006.22;;;6.88;35.89
60725;BME280;59881;36.722;-4.462;2023-02-28T03:59:01;100671.44;;;4.10;35.90
60725;BME280;59881;36.722;-4.462;2023-02-28T04:01:39;100602.94;;;4.06;36.05
60725;BME280;59881;36.722;-4.462;2023-02-28T04:04:10;100751.41;;;4.31;36.07
60725;BME280;59881;36.722;-4.462;2023-02-28T04:06:38;100658.13;;;4.38;36.37
60725;BME280;59881;36.722;-4.462;2023-02-28T04:09:05;100868.28;;;5.52;36.25
60725;BME280;59881;36.722;-4.462;2023-02-28T04:11:42;101108.78;;;6.78;36.52
60725;BME280;59881;36.722;-4.462;2023-02-28T04:14:10;101090.66;;;6.74;36.90
60725;BME280;59881;36.722;-4.462;2023-02-28T04:16:38;101041.97;;;6.70;36.48
60725;BME280;59881;36.722;-4.462;2023-02-28T04:19:05;101042.97;;;6.67;36.71
60725;BME280;59881;36.722;-4.462;2023-02-28T04:21:33;101050.75;;;6.69;36.42
60725;BME280;59881;36.722;-4.462;2023-02-28T04:23:59;100740.31;;;4.04;36.78
60725;BME280;59881;36.722;-4.462;2023-02-28T04:26:31;100868.34;;;5.51;36.66
60725;BME280;59881;36.722;-4.462;2023-02-28T04:28:58;101069.25;;;6.64;36.71
60725;BME280;59881;36.722;-4.462;2023-02-28T04:31:24;101061.53;;;6.61;36.65
60725;BME280;59881;36.722;-4.462;2023-02-28T04:33:49;101093.16;;;6.56;37.15
60725;BME280;59881;36.722;-4.462;2023-02-28T04:36:15;100639.06;;;3.93;37.21
60725;BME280;59881;36.722;-4.462;2023-02-28T04:38:43;100832.47;;;4.49;36.80
60725;BME280;59881;36.722;-4.462;2023-02-28T04:41:09;100648.88;;;3.87;37.06
60725;BME280;59881;36.722;-4.462;2023-02-28T04:43:34;101071.13;;;6.41;37.20
60725;BME280;59881;36.722;-4.462;2023-02-28T04:46:03;101087.81;;;6.39;37.33
60725;BME280;59881;36.722;-4.462;2023-02-28T04:48:31;101081.00;;;6.35;37.35
60725;BME280;59881;36.722;-4.462;2023-02-28T04:51:09;100741.72;;;4.13;37.50
60725;BME280;59881;36.722;-4.462;2023-02-28T04:53:37;101083.81;;;6.30;37.25
60725;BME280;59881;36.722;-4.462;2023-02-28T04:56:03;100380.91;;;1.76;37.58
60725;BME280;59881;36.722;-4.462;2023-02-28T04:58:29;101085.78;;;6.25;37.66
60725;BME280;59881;36.722;-4.462;2023-02-28T05:01:04;100748.19;;;4.25;38.23
60725;BME280;59881;36.722;-4.462;2023-02-28T05:03:40;100609.44;;;3.28;38.19
60725;BME280;59881;36.722;-4.462;2023-02-28T05:06:07;100671.88;;;3.53;39.06
60725;BME280;59881;36.722;-4.462;2023-02-28T05:08:33;101157.78;;;6.13;39.37
60725;BME280;59881;36.722;-4.462;2023-02-28T05:10:59;101105.56;;;6.10;39.21
60725;BME280;59881;36.722;-4.462;2023-02-28T05:13:26;100740.22;;;3.84;38.96
60725;BME280;59881;36.722;-4.462;2023-02-28T05:15:52;99704.91;;;-2.42;39.32
60725;BME280;59881;36.722;-4.462;2023-02-28T05:18:18;100669.03;;;1.82;39.19
60725;BME280;59881;36.722;-4.462;2023-02-28T05:20:43;101260.22;;;6.03;39.55
60725;BME280;59881;36.722;-4.462;2023-02-28T05:23:11;100496.31;;;1.94;39.68
60725;BME280;59881;36.722;-4.462;2023-02-28T05:25:38;101226.78;;;5.87;39.52
60725;BME280;59881;36.722;-4.462;2023-02-28T05:28:04;101212.13;;;5.83;40.15
60725;BME280;59881;36.722;-4.462;2023-02-28T05:30:30;101105.81;;;5.82;39.93
60725;BME280;59881;36.722;-4.462;2023-02-28T05:32:57;101105.88;;;5.80;39.85
60725;BME280;59881;36.722;-4.462;2023-02-28T05:35:22;100995.47;;;4.39;40.31
60725;BME280;59881;36.722;-4.462;2023-02-28T05:37:48;101153.06;;;5.77;40.22
60725;BME280;59881;36.722;-4.462;2023-02-28T05:40:14;101012.25;;;4.06;40.08
60725;BME280;59881;36.722;-4.462;2023-02-28T05:42:41;101163.50;;;5.77;40.42
60725;BME280;59881;36.722;-4.462;2023-02-28T05:45:08;101329.09;;;5.78;40.15
60725;BME280;59881;36.722;-4.462;2023-02-28T05:47:34;101019.47;;;4.48;40.31
60725;BME280;59881;36.722;-4.462;2023-02-28T05:50:00;100016.38;;;-0.90;40.22
60725;BME280;59881;36.722;-4.462;2023-02-28T05:52:26;100893.84;;;4.35;39.87
60725;BME280;59881;36.722;-4.462;2023-02-28T05:54:53;101131.53;;;5.71;40.46
60725;BME280;59881;36.722;-4.462;2023-02-28T05:57:18;100627.88;;;1.97;40.71
60725;BME280;59881;36.722;-4.462;2023-02-28T05:59:44;101057.59;;;5.23;40.51
60725;BME280;59881;36.722;-4.462;2023-02-28T06:02:14;101130.88;;;5.66;40.37
60725;BME280;59881;36.722;-4.462;2023-02-28T06:04:40;100912.41;;;4.28;40.23
60725;BME280;59881;36.722;-4.462;2023-02-28T06:07:07;100710.00;;;2.82;40.38
60725;BME280;59881;36.722;-4.462;2023-02-28T06:09:33;100841.25;;;3.00;40.20
60725;BME280;59881;36.722;-4.462;2023-02-28T06:11:59;100365.47;;;0.38;40.74
60725;BME280;59881;36.722;-4.462;2023-02-28T06:14:25;101139.78;;;5.60;41.05
60725;BME280;59881;36.722;-4.462;2023-02-28T06:16:51;100297.56;;;-0.32;40.69
60725;BME280;59881;36.722;-4.462;2023-02-28T06:19:17;101132.25;;;5.52;40.69
60725;BME280;59881;36.722;-4.462;2023-02-28T06:21:43;100825.03;;;3.69;40.92
60725;BME280;59881;36.722;-4.462;2023-02-28T06:24:09;101131.44;;;5.50;40.13
60725;BME280;59881;36.722;-4.462;2023-02-28T06:26:35;101127.19;;;5.48;40.51
60725;BME280;59881;36.722;-4.462;2023-02-28T06:29:01;101254.50;;;5.44;41.07
60725;BME280;59881;36.722;-4.462;2023-02-28T06:31:28;101132.66;;;5.42;40.44
60725;BME280;59881;36.722;-4.462;2023-02-28T06:33:54;101130.97;;;5.41;40.61
60725;BME280;59881;36.722;-4.462;2023-02-28T06:36:20;100798.41;;;2.57;39.90
60725;BME280;59881;36.722;-4.462;2023-02-28T06:38:46;101132.69;;;5.40;40.32
60725;BME280;59881;36.722;-4.462;2023-02-28T06:41:16;100525.72;;;1.41;40.72
60725;BME280;59881;36.722;-4.462;2023-02-28T06:43:42;100692.06;;;2.75;40.49
60725;BME280;59881;36.722;-4.462;2023-02-28T06:46:11;101082.13;;;4.47;40.55
60725;BME280;59881;36.722;-4.462;2023-02-28T06:48:37;101137.66;;;5.48;40.88
60725;BME280;59881;36.722;-4.462;2023-02-28T06:51:05;101147.09;;;5.52;40.88
60725;BME280;59881;36.722;-4.462;2023-02-28T06:53:31;101084.97;;;4.41;40.59
60725;BME280;59881;36.722;-4.462;2023-02-28T06:55:57;100830.25;;;3.44;40.11
60725;BME280;59881;36.722;-4.462;2023-02-28T06:58:22;101318.09;;;5.68;40.16
60725;BME280;59881;36.722;-4.462;2023-02-28T07:00:51;100913.34;;;4.94;39.82
60725;BME280;59881;36.722;-4.462;2023-02-28T07:03:18;101144.53;;;7.57;38.39
60725;BME280;59881;36.722;-4.462;2023-02-28T07:05:44;100542.81;;;5.09;36.62
60725;BME280;59881;36.722;-4.462;2023-02-28T07:08:10;100293.25;;;4.68;34.88
60725;BME280;59881;36.722;-4.462;2023-02-28T07:10:40;101134.47;;;10.49;32.51
60725;BME280;59881;36.722;-4.462;2023-02-28T07:13:06;100554.84;;;9.16;30.80
60725;BME280;59881;36.722;-4.462;2023-02-28T07:15:32;101242.50;;;13.66;28.84
60725;BME280;59881;36.722;-4.462;2023-02-28T07:17:57;101141.28;;;14.46;27.48
60725;BME280;59881;36.722;-4.462;2023-02-28T07:20:24;101085.34;;;14.38;26.36
60725;BME280;59881;36.722;-4.462;2023-02-28T07:22:50;101132.41;;;15.71;25.46
60725;BME280;59881;36.722;-4.462;2023-02-28T07:25:28;101133.66;;;16.53;24.85
60725;BME280;59881;36.722;-4.462;2023-02-28T07:27:55;101136.19;;;17.37;23.29
60725;BME280;59881;36.722;-4.462;2023-02-28T07:30:21;100970.59;;;16.22;22.61
60725;BME280;59881;36.722;-4.462;2023-02-28T07:32:47;101215.22;;;18.76;21.38
60725;BME280;59881;36.722;-4.462;2023-02-28T07:35:13;101144.81;;;19.34;21.07
60725;BME280;59881;36.722;-4.462;2023-02-28T07:37:41;101129.56;;;20.08;20.35
60725;BME280;59881;36.722;-4.462;2023-02-28T07:40:09;100772.66;;;18.35;19.90
60725;BME280;59881;36.722;-4.462;2023-02-28T07:42:40;101172.25;;;21.23;19.14
60725;BME280;59881;36.722;-4.462;2023-02-28T07:45:07;100708.28;;;19.18;18.34
60725;BME280;59881;36.722;-4.462;2023-02-28T07:47:32;101223.75;;;22.53;17.93
60725;BME280;59881;36.722;-4.462;2023-02-28T07:49:58;100912.00;;;21.18;18.05
60725;BME280;59881;36.722;-4.462;2023-02-28T07:52:24;101175.94;;;22.24;17.29
60725;BME280;59881;36.722;-4.462;2023-02-28T07:54:51;101153.75;;;22.14;17.96
60725;BME280;59881;36.722;-4.462;2023-02-28T07:57:17;101158.13;;;22.72;17.35
60725;BME280;59881;36.722;-4.462;2023-02-28T07:59:43;101235.63;;;23.72;16.59
60725;BME280;59881;36.722;-4.462;2023-02-28T08:02:16;101173.56;;;24.89;15.77
60725;BME280;59881;36.722;-4.462;2023-02-28T08:04:42;101175.25;;;26.22;14.98
60725;BME280;59881;36.722;-4.462;2023-02-28T08:07:08;101184.22;;;27.07;14.67
60725;BME280;59881;36.722;-4.462;2023-02-28T08:09:39;101279.28;;;27.32;13.79
60725;BME280;59881;36.722;-4.462;2023-02-28T08:12:06;101195.56;;;27.65;14.12
60725;BME280;59881;36.722;-4.462;2023-02-28T08:14:31;101193.63;;;28.08;13.71
60725;BME280;59881;36.722;-4.462;2023-02-28T08:16:57;101198.50;;;28.65;13.04
60725;BME280;59881;36.722;-4.462;2023-02-28T08:19:22;101116.34;;;28.18;12.55
60725;BME280;59881;36.722;-4.462;2023-02-28T08:21:48;101073.81;;;27.79;12.49
60725;BME280;59881;36.722;-4.462;2023-02-28T08:24:13;101163.63;;;28.22;12.73
60725;BME280;59881;36.722;-4.462;2023-02-28T08:26:39;101222.06;;;28.72;12.75
60725;BME280;59881;36.722;-4.462;2023-02-28T08:29:05;101200.75;;;28.82;12.29
60725;BME280;59881;36.722;-4.462;2023-02-28T08:31:30;101194.53;;;28.55;12.28
60725;BME280;59881;36.722;-4.462;2023-02-28T08:33:56;101225.38;;;28.67;12.39
60725;BME280;59881;36.722;-4.462;2023-02-28T08:36:25;101218.47;;;28.44;12.11
60725;BME280;59881;36.722;-4.462;2023-02-28T08:38:51;101225.16;;;28.75;11.65
60725;BME280;59881;36.722;-4.462;2023-02-28T08:41:17;101220.44;;;29.49;11.44
60725;BME280;59881;36.722;-4.462;2023-02-28T08:43:43;101223.31;;;29.67;11.13
60725;BME280;59881;36.722;-4.462;2023-02-28T08:46:12;101224.31;;;30.18;10.74
60725;BME280;59881;36.722;-4.462;2023-02-28T08:48:38;101309.09;;;30.40;10.85
60725;BME280;59881;36.722;-4.462;2023-02-28T08:51:09;101265.47;;;31.29;10.23
60725;BME280;59881;36.722;-4.462;2023-02-28T08:53:36;101208.38;;;31.78;10.09
60725;BME280;59881;36.722;-4.462;2023-02-28T08:56:10;101238.38;;;32.62;9.54
60725;BME280;59881;36.722;-4.462;2023-02-28T08:58:36;101269.69;;;32.94;9.59
60725;BME280;59881;36.722;-4.462;2023-02-28T09:01:13;101185.78;;;33.37;9.01
60725;BME280;59881;36.722;-4.462;2023-02-28T09:03:39;101241.47;;;34.05;8.87
60725;BME280;59881;36.722;-4.462;2023-02-28T09:06:06;101239.66;;;34.56;8.45
60725;BME280;59881;36.722;-4.462;2023-02-28T09:08:34;101121.94;;;34.51;8.46
60725;BME280;59881;36.722;-4.462;2023-02-28T09:11:00;101247.06;;;35.73;8.03
60725;BME280;59881;36.722;-4.462;2023-02-28T09:13:27;101233.69;;;36.03;7.51
60725;BME280;59881;36.722;-4.462;2023-02-28T09:15:53;101238.75;;;36.76;7.15
60725;BME280;59881;36.722;-4.462;2023-02-28T09:18:19;101239.03;;;36.47;7.30
60725;BME280;59881;36.722;-4.462;2023-02-28T09:20:45;100854.94;;;33.79;7.33
60725;BME280;59881;36.722;-4.462;2023-02-28T09:23:11;100900.53;;;34.39;7.29
60725;BME280;59881;36.722;-4.462;2023-02-28T09:25:38;101174.78;;;36.76;7.07
60725;BME280;59881;36.722;-4.462;2023-02-28T09:28:09;101192.84;;;37.19;6.45
60725;BME280;59881;36.722;-4.462;2023-02-28T09:30:36;101185.22;;;37.32;6.43
60725;BME280;59881;36.722;-4.462;2023-02-28T09:33:02;101218.13;;;38.00;6.44
60725;BME280;59881;36.722;-4.462;2023-02-28T09:35:28;100941.44;;;36.71;6.48
60725;BME280;59881;36.722;-4.462;2023-02-28T09:37:56;100860.81;;;36.09;6.56
60725;BME280;59881;36.722;-4.462;2023-02-28T09:40:24;101223.00;;;37.62;6.49
60725;BME280;59881;36.722;-4.462;2023-02-28T09:42:53;101214.03;;;38.38;6.26
60725;BME280;59881;36.722;-4.462;2023-02-28T09:47:56;101085.59;;;37.62;5.61
60725;BME280;59881;36.722;-4.462;2023-02-28T09:50:51;101196.38;;;38.70;5.17
60725;BME280;59881;36.722;-4.462;2023-02-28T09:53:46;101204.38;;;39.52;5.30
60725;BME280;59881;36.722;-4.462;2023-02-28T09:56:15;101203.28;;;38.73;5.27
60725;BME280;59881;36.722;-4.462;2023-02-28T09:58:50;101118.00;;;38.57;5.27
60725;BME280;59881;36.722;-4.462;2023-02-28T10:01:27;101190.09;;;39.95;5.02
60725;BME280;59881;36.722;-4.462;2023-02-28T10:04:03;100877.84;;;39.44;4.69
60725;BME280;59881;36.722;-4.462;2023-02-28T10:06:41;100952.91;;;41.65;4.07
60725;BME280;59881;36.722;-4.462;2023-02-28T10:09:22;101184.69;;;44.04;3.71
60725;BME280;59881;36.722;-4.462;2023-02-28T10:11:55;101223.91;;;44.56;3.23
60725;BME280;59881;36.722;-4.462;2023-02-28T10:14:25;101188.25;;;44.89;3.39
60725;BME280;59881;36.722;-4.462;2023-02-28T10:19:38;101181.97;;;45.93;2.69
60725;BME280;59881;36.722;-4.462;2023-02-28T10:25:23;101169.31;;;46.69;2.76
60725;BME280;59881;36.722;-4.462;2023-02-28T10:27:54;100990.47;;;45.78;2.60
60725;BME280;59881;36.722;-4.462;2023-02-28T10:30:19;101156.22;;;47.20;2.06
60725;BME280;59881;36.722;-4.462;2023-02-28T10:32:50;100754.19;;;45.34;2.26
60725;BME280;59881;36.722;-4.462;2023-02-28T10:35:20;101181.81;;;48.56;1.98
60725;BME280;59881;36.722;-4.462;2023-02-28T10:37:51;101177.66;;;48.74;1.82
60725;BME280;59881;36.722;-4.462;2023-02-28T10:40:33;101020.00;;;47.43;2.08
60725;BME280;59881;36.722;-4.462;2023-02-28T10:45:33;100944.19;;;45.64;2.32
60725;BME280;59881;36.722;-4.462;2023-02-28T10:48:05;101171.94;;;47.88;2.01
60725;BME280;59881;36.722;-4.462;2023-02-28T11:01:23;101166.47;;;44.42;2.52
60725;BME280;59881;36.722;-4.462;2023-02-28T11:03:50;101159.06;;;41.58;3.09
60725;BME280;59881;36.722;-4.462;2023-02-28T11:06:19;100764.16;;;32.65;5.20
60725;BME280;59881;36.722;-4.462;2023-02-28T11:08:54;100950.16;;;29.09;7.25
60725;BME280;59881;36.722;-4.462;2023-02-28T11:11:21;100708.53;;;24.51;8.37
60725;BME280;59881;36.722;-4.462;2023-02-28T11:13:51;101159.63;;;25.45;9.10
60725;BME280;59881;36.722;-4.462;2023-02-28T11:16:19;101121.81;;;24.03;9.93
60725;BME280;59881;36.722;-4.462;2023-02-28T11:18:54;101165.50;;;23.42;10.47
60725;BME280;59881;36.722;-4.462;2023-02-28T11:21:30;101170.03;;;22.78;10.96
60725;BME280;59881;36.722;-4.462;2023-02-28T11:24:23;101167.88;;;22.40;11.97
60725;BME280;59881;36.722;-4.462;2023-02-28T11:26:50;101163.81;;;22.20;12.52
60725;BME280;59881;36.722;-4.462;2023-02-28T11:29:20;101163.13;;;22.01;12.97
60725;BME280;59881;36.722;-4.462;2023-02-28T11:34:37;101181.38;;;21.39;13.73
60725;BME280;59881;36.722;-4.462;2023-02-28T11:37:08;101294.50;;;21.24;14.00
60725;BME280;59881;36.722;-4.462;2023-02-28T11:39:36;101173.22;;;21.22;14.59
60725;BME280;59881;36.722;-4.462;2023-02-28T11:50:02;101161.19;;;19.49;14.84
60725;BME280;59881;36.722;-4.462;2023-02-28T12:06:44;101124.13;;;18.51;16.02
60725;BME280;59881;36.722;-4.462;2023-02-28T12:20:45;101107.16;;;17.94;16.68
60725;BME280;59881;36.722;-4.462;2023-02-28T12:26:15;101093.38;;;17.79;17.06
60725;BME280;59881;36.722;-4.462;2023-02-28T12:28:52;100594.66;;;14.64;17.32
60725;BME280;59881;36.722;-4.462;2023-02-28T12:31:24;101007.78;;;17.33;16.87
60725;BME280;59881;36.722;-4.462;2023-02-28T12:33:55;101022.69;;;17.36;16.98
60725;BME280;59881;36.722;-4.462;2023-02-28T12:36:22;101070.09;;;17.71;16.93
60725;BME280;59881;36.722;-4.462;2023-02-28T12:39:03;101145.91;;;17.48;17.03
60725;BME280;59881;36.722;-4.462;2023-02-28T12:44:23;101059.25;;;17.44;17.38
60725;BME280;59881;36.722;-4.462;2023-02-28T12:46:55;101049.03;;;17.39;17.64
60725;BME280;59881;36.722;-4.462;2023-02-28T12:49:27;101049.31;;;17.36;17.86
60725;BME280;59881;36.722;-4.462;2023-02-28T12:51:57;100895.19;;;16.63;17.73
60725;BME280;59881;36.722;-4.462;2023-02-28T12:54:42;101034.63;;;17.51;17.54
60725;BME280;59881;36.722;-4.462;2023-02-28T13:00:05;100978.34;;;17.15;17.77
60725;BME280;59881;36.722;-4.462;2023-02-28T13:10:47;101015.69;;;17.45;18.02
60725;BME280;59881;36.722;-4.462;2023-02-28T13:13:24;101010.91;;;17.48;18.02
60725;BME280;59881;36.722;-4.462;2023-02-28T13:18:33;101002.78;;;17.50;18.05
60725;BME280;59881;36.722;-4.462;2023-02-28T13:21:00;101005.88;;;17.45;18.11
60725;BME280;59881;36.722;-4.462;2023-02-28T13:26:12;100995.66;;;17.60;18.21
60725;BME280;59881;36.722;-4.462;2023-02-28T13:29:49;100846.06;;;16.77;18.27
60725;BME280;59881;36.722;-4.462;2023-02-28T13:35:08;100941.06;;;17.06;18.78
60725;BME280;59881;36.722;-4.462;2023-02-28T13:37:35;100976.97;;;17.11;18.96
60725;BME280;59881;36.722;-4.462;2023-02-28T13:47:41;100958.41;;;17.00;19.25
60725;BME280;59881;36.722;-4.462;2023-02-28T13:50:27;100950.72;;;16.97;19.13
60725;BME280;59881;36.722;-4.462;2023-02-28T13:58:12;100951.00;;;16.94;18.52
60725;BME280;59881;36.722;-4.462;2023-02-28T14:06:22;100937.66;;;16.84;19.26
60725;BME280;59881;36.722;-4.462;2023-02-28T14:09:20;100935.28;;;16.81;18.94
60725;BME280;59881;36.722;-4.462;2023-02-28T14:11:49;100928.28;;;16.80;19.06
60725;BME280;59881;36.722;-4.462;2023-02-28T14:17:06;100853.38;;;16.34;19.67
60725;BME280;59881;36.722;-4.462;2023-02-28T14:19:37;100923.34;;;16.75;19.16
60725;BME280;59881;36.722;-4.462;2023-02-28T14:25:25;100919.00;;;16.74;19.04
60725;BME280;59881;36.722;-4.462;2023-02-28T14:33:31;100914.22;;;16.68;19.32
60725;BME280;59881;36.722;-4.462;2023-02-28T14:36:04;100907.06;;;16.69;19.15
60725;BME280;59881;36.722;-4.462;2023-02-28T14:38:35;100878.88;;;16.47;19.49
60725;BME280;59881;36.722;-4.462;2023-02-28T14:41:04;100915.34;;;16.66;19.21
60725;BME280;59881;36.722;-4.462;2023-02-28T14:43:32;100917.00;;;16.57;19.04
60725;BME280;59881;36.722;-4.462;2023-02-28T14:46:02;100910.00;;;16.56;19.03
60725;BME280;59881;36.722;-4.462;2023-02-28T14:48:29;100914.34;;;16.57;19.11
60725;BME280;59881;36.722;-4.462;2023-02-28T14:51:00;100849.13;;;16.22;19.25
60725;BME280;59881;36.722;-4.462;2023-02-28T14:53:29;100903.69;;;16.57;18.66
60725;BME280;59881;36.722;-4.462;2023-02-28T14:55:56;100460.34;;;13.80;19.52
60725;BME280;59881;36.722;-4.462;2023-02-28T14:58:30;100904.94;;;16.53;19.31
60725;BME280;59881;36.722;-4.462;2023-02-28T15:01:03;100902.28;;;16.53;19.33
60725;BME280;59881;36.722;-4.462;2023-02-28T15:06:06;100895.69;;;16.47;19.12
60725;BME280;59881;36.722;-4.462;2023-02-28T15:08:32;100903.63;;;16.38;19.24
60725;BME280;59881;36.722;-4.462;2023-02-28T15:11:08;100768.50;;;15.41;19.27
60725;BME280;59881;36.722;-4.462;2023-02-28T15:13:41;100911.47;;;16.39;19.09
60725;BME280;59881;36.722;-4.462;2023-02-28T15:16:15;100909.13;;;16.46;19.50
60725;BME280;59881;36.722;-4.462;2023-02-28T15:18:50;100907.03;;;16.49;19.41
60725;BME280;59881;36.722;-4.462;2023-02-28T15:21:23;100433.72;;;13.61;19.92